sensor_id;sensor_type;location;lat;lon;timestamp;P1;durP1;ratioP1;P2;durP2;ratioP2
25615;SDS011;13482;48.234;13.006;2022-11-15T00:01:07;4.60;;;2.97;;
25615;SDS011;13482;48.234;13.006;2022-11-15T00:03:36;4.68;;;3.17;;
25615;SDS011;13482;48.234;13.006;2022-11-15T00:06:03;4.57;;;2.80;;
25615;SDS011;13482;48.234;13.006;2022-11-15T00:08:32;4.45;;;3.00;;
25615;SDS011;13482;48.234;13.006;2022-11-15T00:11:00;4.18;;;3.08;;
25615;SDS011;13482;48.234;13.006;2022-11-15T00:13:29;4.22;;;2.85;;
25615;SDS011;13482;48.234;13.006;2022-11-15T00:15:57;4.30;;;3.00;;
25615;SDS011;13482;48.234;13.006;2022-11-15T00:18:26;3.88;;;2.45;;
25615;SDS011;13482;48.234;13.006;2022-11-15T00:20:54;4.55;;;3.00;;
25615;SDS011;13482;48.234;13.006;2022-11-15T00:23:22;4.28;;;2.90;;
25615;SDS011;13482;48.234;13.006;2022-11-15T00:25:56;4.18;;;2.72;;
25615;SDS011;13482;48.234;13.006;2022-11-15T00:28:24;3.85;;;2.70;;
25615;SDS011;13482;48.234;13.006;2022-11-15T00:30:52;6.20;;;2.78;;
25615;SDS011;13482;48.234;13.006;2022-11-15T00:33:20;4.18;;;2.95;;
25615;SDS011;13482;48.234;13.006;2022-11-15T00:35:47;4.75;;;3.28;;
25615;SDS011;13482;48.234;13.006;2022-11-15T00:38:14;3.90;;;2.67;;
25615;SDS011;13482;48.234;13.006;2022-11-15T00:40:41;4.55;;;2.85;;
25615;SDS011;13482;48.234;13.006;2022-11-15T00:43:08;4.13;;;2.72;;
25615;SDS011;13482;48.234;13.006;2022-11-15T00:45:36;4.13;;;2.95;;
25615;SDS011;13482;48.234;13.006;2022-11-15T00:48:03;3.80;;;2.58;;
25615;SDS011;13482;48.234;13.006;2022-11-15T00:50:31;5.38;;;2.78;;
25615;SDS011;13482;48.234;13.006;2022-11-15T00:52:58;3.63;;;2.53;;
25615;SDS011;13482;48.234;13.006;2022-11-15T00:55:25;3.90;;;2.70;;
25615;SDS011;13482;48.234;13.006;2022-11-15T00:57:52;4.20;;;2.88;;
25615;SDS011;13482;48.234;13.006;2022-11-15T01:00:19;5.35;;;2.60;;
25615;SDS011;13482;48.234;13.006;2022-11-15T01:02:46;4.65;;;2.97;;
25615;SDS011;13482;48.234;13.006;2022-11-15T01:05:13;4.10;;;2.72;;
25615;SDS011;13482;48.234;13.006;2022-11-15T01:07:41;3.90;;;2.78;;
25615;SDS011;13482;48.234;13.006;2022-11-15T01:10:08;4.00;;;2.65;;
25615;SDS011;13482;48.234;13.006;2022-11-15T01:12:36;4.55;;;2.70;;
25615;SDS011;13482;48.234;13.006;2022-11-15T01:15:04;4.45;;;2.78;;
25615;SDS011;13482;48.234;13.006;2022-11-15T01:17:31;4.47;;;3.15;;
25615;SDS011;13482;48.234;13.006;2022-11-15T01:19:58;3.35;;;2.50;;
25615;SDS011;13482;48.234;13.006;2022-11-15T01:22:26;3.75;;;2.60;;
25615;SDS011;13482;48.234;13.006;2022-11-15T01:24:53;3.13;;;2.13;;
25615;SDS011;13482;48.234;13.006;2022-11-15T01:27:20;4.32;;;2.60;;
25615;SDS011;13482;48.234;13.006;2022-11-15T01:29:48;3.45;;;2.33;;
25615;SDS011;13482;48.234;13.006;2022-11-15T01:32:15;4.45;;;2.80;;
25615;SDS011;13482;48.234;13.006;2022-11-15T01:34:42;3.33;;;2.40;;
25615;SDS011;13482;48.234;13.006;2022-11-15T01:37:09;4.10;;;2.47;;
25615;SDS011;13482;48.234;13.006;2022-11-15T01:39:36;3.63;;;2.63;;
25615;SDS011;13482;48.234;13.006;2022-11-15T01:42:03;3.75;;;2.65;;
25615;SDS011;13482;48.234;13.006;2022-11-15T01:47:06;3.55;;;2.42;;
25615;SDS011;13482;48.234;13.006;2022-11-15T01:49:41;3.10;;;2.22;;
25615;SDS011;13482;48.234;13.006;2022-11-15T01:52:17;4.57;;;2.70;;
25615;SDS011;13482;48.234;13.006;2022-11-15T01:54:48;6.07;;;3.78;;
25615;SDS011;13482;48.234;13.006;2022-11-15T01:57:20;5.60;;;3.33;;
25615;SDS011;13482;48.234;13.006;2022-11-15T01:59:48;5.95;;;3.50;;
25615;SDS011;13482;48.234;13.006;2022-11-15T02:02:15;5.28;;;3.45;;
25615;SDS011;13482;48.234;13.006;2022-11-15T02:04:43;6.15;;;3.67;;
25615;SDS011;13482;48.234;13.006;2022-11-15T02:07:14;7.18;;;3.50;;
25615;SDS011;13482;48.234;13.006;2022-11-15T02:09:44;6.22;;;3.28;;
25615;SDS011;13482;48.234;13.006;2022-11-15T02:12:13;6.75;;;3.13;;
25615;SDS011;13482;48.234;13.006;2022-11-15T02:14:47;9.70;;;2.78;;
25615;SDS011;13482;48.234;13.006;2022-11-15T02:20:31;10.93;;;2.72;;
25615;SDS011;13482;48.234;13.006;2022-11-15T02:26:30;3.63;;;2.17;;
25615;SDS011;13482;48.234;13.006;2022-11-15T02:32:15;3.47;;;2.10;;
25615;SDS011;13482;48.234;13.006;2022-11-15T02:34:54;2.90;;;1.90;;
25615;SDS011;13482;48.234;13.006;2022-11-15T02:37:56;3.47;;;2.05;;
25615;SDS011;13482;48.234;13.006;2022-11-15T02:43:20;2.65;;;1.63;;
25615;SDS011;13482;48.234;13.006;2022-11-15T02:46:20;2.65;;;1.80;;
25615;SDS011;13482;48.234;13.006;2022-11-15T02:49:27;3.33;;;2.03;;
25615;SDS011;13482;48.234;13.006;2022-11-15T02:51:59;4.65;;;2.95;;
25615;SDS011;13482;48.234;13.006;2022-11-15T02:54:30;6.78;;;3.22;;
25615;SDS011;13482;48.234;13.006;2022-11-15T02:57:00;5.63;;;3.33;;
25615;SDS011;13482;48.234;13.006;2022-11-15T03:02:39;6.60;;;3.75;;
25615;SDS011;13482;48.234;13.006;2022-11-15T03:21:57;3.67;;;2.42;;
25615;SDS011;13482;48.234;13.006;2022-11-15T03:24:27;4.00;;;2.38;;
25615;SDS011;13482;48.234;13.006;2022-11-15T03:26:56;5.95;;;2.60;;
25615;SDS011;13482;48.234;13.006;2022-11-15T03:29:27;3.78;;;2.50;;
25615;SDS011;13482;48.234;13.006;2022-11-15T03:32:01;4.43;;;2.55;;
25615;SDS011;13482;48.234;13.006;2022-11-15T03:37:29;3.40;;;2.25;;
25615;SDS011;13482;48.234;13.006;2022-11-15T03:40:22;3.17;;;2.10;;
25615;SDS011;13482;48.234;13.006;2022-11-15T03:45:51;3.40;;;1.95;;
25615;SDS011;13482;48.234;13.006;2022-11-15T03:48:35;2.92;;;2.00;;
25615;SDS011;13482;48.234;13.006;2022-11-15T03:51:09;2.90;;;1.95;;
25615;SDS011;13482;48.234;13.006;2022-11-15T03:53:37;3.00;;;1.95;;
25615;SDS011;13482;48.234;13.006;2022-11-15T03:56:04;2.92;;;2.10;;
25615;SDS011;13482;48.234;13.006;2022-11-15T03:58:32;3.88;;;2.30;;
25615;SDS011;13482;48.234;13.006;2022-11-15T04:00:59;4.22;;;2.53;;
25615;SDS011;13482;48.234;13.006;2022-11-15T04:03:26;4.45;;;2.50;;
25615;SDS011;13482;48.234;13.006;2022-11-15T04:05:54;3.78;;;2.25;;
25615;SDS011;13482;48.234;13.006;2022-11-15T04:08:21;5.32;;;2.63;;
25615;SDS011;13482;48.234;13.006;2022-11-15T04:10:49;7.10;;;2.50;;
25615;SDS011;13482;48.234;13.006;2022-11-15T04:13:16;4.22;;;2.58;;
25615;SDS011;13482;48.234;13.006;2022-11-15T04:15:43;4.03;;;2.47;;
25615;SDS011;13482;48.234;13.006;2022-11-15T04:18:10;4.15;;;2.45;;
25615;SDS011;13482;48.234;13.006;2022-11-15T04:20:37;4.75;;;2.40;;
25615;SDS011;13482;48.234;13.006;2022-11-15T04:23:23;3.78;;;2.20;;
25615;SDS011;13482;48.234;13.006;2022-11-15T04:26:12;3.47;;;2.20;;
25615;SDS011;13482;48.234;13.006;2022-11-15T04:28:43;2.50;;;1.73;;
25615;SDS011;13482;48.234;13.006;2022-11-15T04:31:29;2.53;;;1.83;;
25615;SDS011;13482;48.234;13.006;2022-11-15T04:33:56;5.85;;;2.63;;
25615;SDS011;13482;48.234;13.006;2022-11-15T04:36:23;4.18;;;2.80;;
25615;SDS011;13482;48.234;13.006;2022-11-15T04:39:09;4.05;;;2.40;;
25615;SDS011;13482;48.234;13.006;2022-11-15T04:41:36;4.90;;;2.25;;
25615;SDS011;13482;48.234;13.006;2022-11-15T04:44:03;4.18;;;2.45;;
25615;SDS011;13482;48.234;13.006;2022-11-15T04:46:30;4.07;;;2.35;;
25615;SDS011;13482;48.234;13.006;2022-11-15T04:48:58;4.40;;;2.83;;
25615;SDS011;13482;48.234;13.006;2022-11-15T04:51:25;4.60;;;2.97;;
25615;SDS011;13482;48.234;13.006;2022-11-15T04:53:52;5.22;;;3.20;;
25615;SDS011;13482;48.234;13.006;2022-11-15T04:56:19;4.75;;;3.25;;
25615;SDS011;13482;48.234;13.006;2022-11-15T04:58:50;4.32;;;2.83;;
25615;SDS011;13482;48.234;13.006;2022-11-15T05:01:17;5.88;;;3.00;;
25615;SDS011;13482;48.234;13.006;2022-11-15T05:03:44;3.65;;;2.80;;
25615;SDS011;13482;48.234;13.006;2022-11-15T05:06:30;3.85;;;2.65;;
25615;SDS011;13482;48.234;13.006;2022-11-15T05:08:58;4.28;;;2.83;;
25615;SDS011;13482;48.234;13.006;2022-11-15T05:11:25;4.10;;;2.78;;
25615;SDS011;13482;48.234;13.006;2022-11-15T05:13:53;4.15;;;2.67;;
25615;SDS011;13482;48.234;13.006;2022-11-15T05:16:20;3.78;;;2.60;;
25615;SDS011;13482;48.234;13.006;2022-11-15T05:18:51;3.20;;;2.20;;
25615;SDS011;13482;48.234;13.006;2022-11-15T05:21:20;4.03;;;2.70;;
25615;SDS011;13482;48.234;13.006;2022-11-15T05:23:48;5.15;;;2.80;;
25615;SDS011;13482;48.234;13.006;2022-11-15T05:26:16;4.35;;;2.80;;
25615;SDS011;13482;48.234;13.006;2022-11-15T05:28:44;4.18;;;2.67;;
25615;SDS011;13482;48.234;13.006;2022-11-15T05:31:15;3.78;;;2.65;;
25615;SDS011;13482;48.234;13.006;2022-11-15T05:33:43;3.40;;;2.58;;
25615;SDS011;13482;48.234;13.006;2022-11-15T05:36:31;4.97;;;2.80;;
25615;SDS011;13482;48.234;13.006;2022-11-15T05:39:05;3.80;;;2.72;;
25615;SDS011;13482;48.234;13.006;2022-11-15T05:41:42;4.07;;;2.65;;
25615;SDS011;13482;48.234;13.006;2022-11-15T05:44:16;5.60;;;2.88;;
25615;SDS011;13482;48.234;13.006;2022-11-15T05:46:45;5.10;;;2.63;;
25615;SDS011;13482;48.234;13.006;2022-11-15T05:49:17;5.80;;;2.53;;
25615;SDS011;13482;48.234;13.006;2022-11-15T05:51:49;4.05;;;2.70;;
25615;SDS011;13482;48.234;13.006;2022-11-15T05:54:18;3.63;;;2.20;;
25615;SDS011;13482;48.234;13.006;2022-11-15T05:56:48;2.67;;;2.20;;
25615;SDS011;13482;48.234;13.006;2022-11-15T05:59:16;3.45;;;2.30;;
25615;SDS011;13482;48.234;13.006;2022-11-15T06:01:43;3.60;;;2.38;;
25615;SDS011;13482;48.234;13.006;2022-11-15T06:04:11;2.80;;;1.98;;
25615;SDS011;13482;48.234;13.006;2022-11-15T06:06:38;4.07;;;2.05;;
25615;SDS011;13482;48.234;13.006;2022-11-15T06:09:05;3.55;;;2.17;;
25615;SDS011;13482;48.234;13.006;2022-11-15T06:11:32;3.30;;;2.03;;
25615;SDS011;13482;48.234;13.006;2022-11-15T06:14:00;4.43;;;2.50;;
25615;SDS011;13482;48.234;13.006;2022-11-15T06:16:27;3.53;;;2.22;;
25615;SDS011;13482;48.234;13.006;2022-11-15T06:18:54;3.03;;;2.38;;
25615;SDS011;13482;48.234;13.006;2022-11-15T06:21:21;3.45;;;2.25;;
25615;SDS011;13482;48.234;13.006;2022-11-15T06:23:49;11.10;;;2.53;;
25615;SDS011;13482;48.234;13.006;2022-11-15T06:26:16;3.10;;;2.35;;
25615;SDS011;13482;48.234;13.006;2022-11-15T06:28:43;3.25;;;2.25;;
25615;SDS011;13482;48.234;13.006;2022-11-15T06:31:10;3.92;;;2.42;;
25615;SDS011;13482;48.234;13.006;2022-11-15T06:33:38;3.75;;;2.55;;
25615;SDS011;13482;48.234;13.006;2022-11-15T06:36:07;6.80;;;2.55;;
25615;SDS011;13482;48.234;13.006;2022-11-15T06:38:46;3.55;;;2.30;;
25615;SDS011;13482;48.234;13.006;2022-11-15T06:41:13;3.78;;;2.30;;
25615;SDS011;13482;48.234;13.006;2022-11-15T06:43:43;4.43;;;2.47;;
25615;SDS011;13482;48.234;13.006;2022-11-15T06:46:10;5.30;;;3.28;;
25615;SDS011;13482;48.234;13.006;2022-11-15T06:48:37;5.38;;;3.20;;
25615;SDS011;13482;48.234;13.006;2022-11-15T06:51:05;4.70;;;3.30;;
25615;SDS011;13482;48.234;13.006;2022-11-15T06:53:33;4.72;;;3.70;;
25615;SDS011;13482;48.234;13.006;2022-11-15T06:56:01;5.57;;;3.42;;
25615;SDS011;13482;48.234;13.006;2022-11-15T06:58:31;5.23;;;3.67;;
25615;SDS011;13482;48.234;13.006;2022-11-15T07:01:03;5.82;;;3.50;;
25615;SDS011;13482;48.234;13.006;2022-11-15T07:03:42;8.75;;;3.55;;
25615;SDS011;13482;48.234;13.006;2022-11-15T07:06:09;7.60;;;3.42;;
25615;SDS011;13482;48.234;13.006;2022-11-15T07:08:37;4.93;;;3.10;;
25615;SDS011;13482;48.234;13.006;2022-11-15T07:11:05;6.35;;;3.13;;
25615;SDS011;13482;48.234;13.006;2022-11-15T07:13:35;3.92;;;2.55;;
25615;SDS011;13482;48.234;13.006;2022-11-15T07:16:06;4.53;;;2.80;;
25615;SDS011;13482;48.234;13.006;2022-11-15T07:18:36;4.47;;;2.80;;
25615;SDS011;13482;48.234;13.006;2022-11-15T07:21:07;3.22;;;2.40;;
25615;SDS011;13482;48.234;13.006;2022-11-15T07:23:36;6.50;;;2.85;;
25615;SDS011;13482;48.234;13.006;2022-11-15T07:26:05;3.13;;;2.17;;
25615;SDS011;13482;48.234;13.006;2022-11-15T07:28:33;3.70;;;2.60;;
25615;SDS011;13482;48.234;13.006;2022-11-15T07:31:02;3.67;;;2.47;;
25615;SDS011;13482;48.234;13.006;2022-11-15T07:33:34;6.13;;;3.00;;
25615;SDS011;13482;48.234;13.006;2022-11-15T07:36:02;4.25;;;2.42;;
25615;SDS011;13482;48.234;13.006;2022-11-15T07:38:32;5.07;;;2.70;;
25615;SDS011;13482;48.234;13.006;2022-11-15T07:41:09;5.82;;;2.65;;
25615;SDS011;13482;48.234;13.006;2022-11-15T07:43:37;7.22;;;2.90;;
25615;SDS011;13482;48.234;13.006;2022-11-15T07:46:08;3.72;;;2.80;;
25615;SDS011;13482;48.234;13.006;2022-11-15T07:48:36;3.97;;;2.55;;
25615;SDS011;13482;48.234;13.006;2022-11-15T07:51:14;5.80;;;2.83;;
25615;SDS011;13482;48.234;13.006;2022-11-15T07:53:43;5.38;;;2.75;;
25615;SDS011;13482;48.234;13.006;2022-11-15T07:56:11;4.80;;;2.97;;
25615;SDS011;13482;48.234;13.006;2022-11-15T07:58:39;3.58;;;2.83;;
25615;SDS011;13482;48.234;13.006;2022-11-15T08:01:07;6.05;;;2.38;;
25615;SDS011;13482;48.234;13.006;2022-11-15T08:03:36;5.03;;;2.40;;
25615;SDS011;13482;48.234;13.006;2022-11-15T08:06:03;5.85;;;2.92;;
25615;SDS011;13482;48.234;13.006;2022-11-15T08:08:31;9.32;;;3.13;;
25615;SDS011;13482;48.234;13.006;2022-11-15T08:10:58;5.57;;;3.03;;
25615;SDS011;13482;48.234;13.006;2022-11-15T08:13:26;4.03;;;2.42;;
25615;SDS011;13482;48.234;13.006;2022-11-15T08:15:58;5.43;;;3.08;;
25615;SDS011;13482;48.234;13.006;2022-11-15T08:18:26;4.97;;;2.60;;
25615;SDS011;13482;48.234;13.006;2022-11-15T08:20:57;4.07;;;2.78;;
25615;SDS011;13482;48.234;13.006;2022-11-15T08:23:26;4.75;;;2.65;;
25615;SDS011;13482;48.234;13.006;2022-11-15T08:25:58;4.45;;;2.92;;
25615;SDS011;13482;48.234;13.006;2022-11-15T08:28:28;4.00;;;2.83;;
25615;SDS011;13482;48.234;13.006;2022-11-15T08:30:55;4.05;;;3.03;;
25615;SDS011;13482;48.234;13.006;2022-11-15T08:33:23;7.03;;;3.17;;
25615;SDS011;13482;48.234;13.006;2022-11-15T08:35:50;4.40;;;3.15;;
25615;SDS011;13482;48.234;13.006;2022-11-15T08:38:17;5.53;;;3.35;;
25615;SDS011;13482;48.234;13.006;2022-11-15T08:40:45;6.38;;;3.30;;
25615;SDS011;13482;48.234;13.006;2022-11-15T08:43:12;9.23;;;3.63;;
25615;SDS011;13482;48.234;13.006;2022-11-15T08:45:39;5.28;;;4.05;;
25615;SDS011;13482;48.234;13.006;2022-11-15T08:48:06;6.22;;;3.92;;
25615;SDS011;13482;48.234;13.006;2022-11-15T08:50:33;4.95;;;3.92;;
25615;SDS011;13482;48.234;13.006;2022-11-15T08:53:05;5.68;;;4.45;;
25615;SDS011;13482;48.234;13.006;2022-11-15T08:55:38;5.47;;;4.25;;
25615;SDS011;13482;48.234;13.006;2022-11-15T08:58:07;6.68;;;4.07;;
25615;SDS011;13482;48.234;13.006;2022-11-15T09:00:34;4.88;;;3.95;;
25615;SDS011;13482;48.234;13.006;2022-11-15T09:03:03;6.82;;;4.28;;
25615;SDS011;13482;48.234;13.006;2022-11-15T09:05:32;6.60;;;4.13;;
25615;SDS011;13482;48.234;13.006;2022-11-15T09:08:02;5.95;;;4.63;;
25615;SDS011;13482;48.234;13.006;2022-11-15T09:10:49;5.43;;;4.15;;
25615;SDS011;13482;48.234;13.006;2022-11-15T09:13:17;6.25;;;4.65;;
25615;SDS011;13482;48.234;13.006;2022-11-15T09:15:44;5.70;;;4.10;;
25615;SDS011;13482;48.234;13.006;2022-11-15T09:18:11;5.70;;;4.43;;
25615;SDS011;13482;48.234;13.006;2022-11-15T09:20:39;7.57;;;4.95;;
25615;SDS011;13482;48.234;13.006;2022-11-15T09:23:06;6.63;;;4.72;;
25615;SDS011;13482;48.234;13.006;2022-11-15T09:25:33;6.45;;;4.70;;
25615;SDS011;13482;48.234;13.006;2022-11-15T09:28:00;7.00;;;4.97;;
25615;SDS011;13482;48.234;13.006;2022-11-15T09:30:33;7.50;;;4.85;;
25615;SDS011;13482;48.234;13.006;2022-11-15T09:33:08;6.30;;;4.75;;
25615;SDS011;13482;48.234;13.006;2022-11-15T09:35:36;8.48;;;5.32;;
25615;SDS011;13482;48.234;13.006;2022-11-15T09:38:04;7.25;;;4.95;;
25615;SDS011;13482;48.234;13.006;2022-11-15T09:40:31;7.20;;;5.10;;
25615;SDS011;13482;48.234;13.006;2022-11-15T09:45:56;5.63;;;4.10;;
25615;SDS011;13482;48.234;13.006;2022-11-15T09:51:24;5.60;;;4.55;;
25615;SDS011;13482;48.234;13.006;2022-11-15T09:57:15;5.97;;;4.53;;
25615;SDS011;13482;48.234;13.006;2022-11-15T10:05:48;6.65;;;5.10;;
25615;SDS011;13482;48.234;13.006;2022-11-15T10:11:47;5.90;;;4.65;;
25615;SDS011;13482;48.234;13.006;2022-11-15T10:14:16;6.03;;;4.90;;
25615;SDS011;13482;48.234;13.006;2022-11-15T10:20:11;7.22;;;5.47;;
25615;SDS011;13482;48.234;13.006;2022-11-15T10:22:48;7.13;;;5.55;;
25615;SDS011;13482;48.234;13.006;2022-11-15T10:27:54;6.80;;;5.20;;
25615;SDS011;13482;48.234;13.006;2022-11-15T10:30:46;7.88;;;5.32;;
25615;SDS011;13482;48.234;13.006;2022-11-15T10:46:44;7.18;;;6.05;;
25615;SDS011;13482;48.234;13.006;2022-11-15T10:49:23;8.15;;;5.93;;
25615;SDS011;13482;48.234;13.006;2022-11-15T10:51:59;8.00;;;6.70;;
25615;SDS011;13482;48.234;13.006;2022-11-15T10:54:48;7.60;;;6.00;;
25615;SDS011;13482;48.234;13.006;2022-11-15T10:57:22;7.22;;;5.70;;
25615;SDS011;13482;48.234;13.006;2022-11-15T11:05:36;6.25;;;5.40;;
25615;SDS011;13482;48.234;13.006;2022-11-15T11:10:38;6.80;;;5.20;;
25615;SDS011;13482;48.234;13.006;2022-11-15T11:27:32;6.32;;;5.43;;
25615;SDS011;13482;48.234;13.006;2022-11-15T11:33:04;7.40;;;5.95;;
25615;SDS011;13482;48.234;13.006;2022-11-15T11:38:32;6.93;;;5.80;;
25615;SDS011;13482;48.234;13.006;2022-11-15T11:41:19;7.15;;;5.93;;
25615;SDS011;13482;48.234;13.006;2022-11-15T11:47:30;7.60;;;6.15;;
25615;SDS011;13482;48.234;13.006;2022-11-15T11:50:24;8.40;;;6.65;;
25615;SDS011;13482;48.234;13.006;2022-11-15T11:52:58;7.18;;;6.22;;
25615;SDS011;13482;48.234;13.006;2022-11-15T12:01:17;9.23;;;6.75;;
25615;SDS011;13482;48.234;13.006;2022-11-15T12:04:08;8.80;;;7.20;;
25615;SDS011;13482;48.234;13.006;2022-11-15T12:06:49;8.27;;;7.07;;
25615;SDS011;13482;48.234;13.006;2022-11-15T12:12:29;9.55;;;7.07;;
25615;SDS011;13482;48.234;13.006;2022-11-15T12:15:51;9.30;;;7.30;;
25615;SDS011;13482;48.234;13.006;2022-11-15T12:18:22;8.40;;;6.70;;
25615;SDS011;13482;48.234;13.006;2022-11-15T12:20:51;8.18;;;6.88;;
25615;SDS011;13482;48.234;13.006;2022-11-15T12:23:24;8.52;;;7.07;;
25615;SDS011;13482;48.234;13.006;2022-11-15T12:26:10;9.25;;;7.60;;
25615;SDS011;13482;48.234;13.006;2022-11-15T12:29:00;7.97;;;7.00;;
25615;SDS011;13482;48.234;13.006;2022-11-15T12:34:02;10.63;;;7.30;;
25615;SDS011;13482;48.234;13.006;2022-11-15T12:36:53;10.70;;;6.95;;
25615;SDS011;13482;48.234;13.006;2022-11-15T12:40:03;7.13;;;6.25;;
25615;SDS011;13482;48.234;13.006;2022-11-15T12:43:04;7.43;;;6.28;;
25615;SDS011;13482;48.234;13.006;2022-11-15T12:45:42;7.50;;;6.53;;
25615;SDS011;13482;48.234;13.006;2022-11-15T12:58:46;7.63;;;6.43;;
25615;SDS011;13482;48.234;13.006;2022-11-15T13:06:48;7.40;;;6.38;;
25615;SDS011;13482;48.234;13.006;2022-11-15T13:12:10;8.38;;;6.90;;
25615;SDS011;13482;48.234;13.006;2022-11-15T13:28:36;8.45;;;7.00;;
25615;SDS011;13482;48.234;13.006;2022-11-15T13:33:50;8.90;;;7.47;;
25615;SDS011;13482;48.234;13.006;2022-11-15T13:39:04;9.38;;;7.55;;
25615;SDS011;13482;48.234;13.006;2022-11-15T13:41:50;9.65;;;7.53;;
25615;SDS011;13482;48.234;13.006;2022-11-15T13:44:22;9.48;;;7.85;;
25615;SDS011;13482;48.234;13.006;2022-11-15T13:47:13;10.38;;;8.43;;
25615;SDS011;13482;48.234;13.006;2022-11-15T13:49:41;9.35;;;7.80;;
25615;SDS011;13482;48.234;13.006;2022-11-15T13:52:14;10.73;;;8.32;;
25615;SDS011;13482;48.234;13.006;2022-11-15T13:54:44;9.70;;;8.10;;
25615;SDS011;13482;48.234;13.006;2022-11-15T13:57:44;9.07;;;7.78;;
25615;SDS011;13482;48.234;13.006;2022-11-15T14:00:37;10.10;;;8.30;;
25615;SDS011;13482;48.234;13.006;2022-11-15T14:03:17;8.93;;;7.30;;
25615;SDS011;13482;48.234;13.006;2022-11-15T14:08:42;10.00;;;7.95;;
25615;SDS011;13482;48.234;13.006;2022-11-15T14:11:27;8.95;;;7.30;;
25615;SDS011;13482;48.234;13.006;2022-11-15T14:19:56;9.27;;;7.68;;
25615;SDS011;13482;48.234;13.006;2022-11-15T14:22:11;10.30;;;7.70;;
25615;SDS011;13482;48.234;13.006;2022-11-15T14:24:44;8.85;;;7.25;;
25615;SDS011;13482;48.234;13.006;2022-11-15T14:29:53;8.57;;;6.90;;
25615;SDS011;13482;48.234;13.006;2022-11-15T14:32:21;7.85;;;6.65;;
25615;SDS011;13482;48.234;13.006;2022-11-15T14:35:00;8.38;;;6.28;;
25615;SDS011;13482;48.234;13.006;2022-11-15T14:37:31;9.45;;;6.57;;
25615;SDS011;13482;48.234;13.006;2022-11-15T14:40:02;7.63;;;6.60;;
25615;SDS011;13482;48.234;13.006;2022-11-15T14:42:31;8.23;;;6.15;;
25615;SDS011;13482;48.234;13.006;2022-11-15T14:44:59;7.32;;;5.63;;
25615;SDS011;13482;48.234;13.006;2022-11-15T14:47:26;7.97;;;5.97;;
25615;SDS011;13482;48.234;13.006;2022-11-15T14:49:53;7.35;;;6.07;;
25615;SDS011;13482;48.234;13.006;2022-11-15T14:54:58;6.80;;;5.53;;
25615;SDS011;13482;48.234;13.006;2022-11-15T14:57:28;6.47;;;5.47;;
25615;SDS011;13482;48.234;13.006;2022-11-15T14:59:56;6.75;;;5.53;;
25615;SDS011;13482;48.234;13.006;2022-11-15T15:02:24;6.45;;;5.22;;
25615;SDS011;13482;48.234;13.006;2022-11-15T15:04:53;6.45;;;5.32;;
25615;SDS011;13482;48.234;13.006;2022-11-15T15:07:20;6.95;;;5.57;;
25615;SDS011;13482;48.234;13.006;2022-11-15T15:09:48;6.50;;;5.40;;
25615;SDS011;13482;48.234;13.006;2022-11-15T15:12:20;6.72;;;5.53;;
25615;SDS011;13482;48.234;13.006;2022-11-15T15:14:49;6.15;;;5.22;;
25615;SDS011;13482;48.234;13.006;2022-11-15T15:17:17;6.53;;;5.32;;
25615;SDS011;13482;48.234;13.006;2022-11-15T15:19:44;7.40;;;5.50;;
25615;SDS011;13482;48.234;13.006;2022-11-15T15:22:12;6.47;;;5.30;;
25615;SDS011;13482;48.234;13.006;2022-11-15T15:24:43;6.95;;;5.68;;
25615;SDS011;13482;48.234;13.006;2022-11-15T15:27:12;6.80;;;5.35;;
25615;SDS011;13482;48.234;13.006;2022-11-15T15:29:40;6.88;;;5.63;;
25615;SDS011;13482;48.234;13.006;2022-11-15T15:32:08;7.43;;;5.30;;
25615;SDS011;13482;48.234;13.006;2022-11-15T15:34:36;8.50;;;6.50;;
25615;SDS011;13482;48.234;13.006;2022-11-15T15:37:21;7.80;;;5.97;;
25615;SDS011;13482;48.234;13.006;2022-11-15T15:39:52;6.93;;;5.53;;
25615;SDS011;13482;48.234;13.006;2022-11-15T15:42:23;7.47;;;5.78;;
25615;SDS011;13482;48.234;13.006;2022-11-15T15:44:50;7.40;;;5.97;;
25615;SDS011;13482;48.234;13.006;2022-11-15T15:47:18;8.27;;;6.22;;
25615;SDS011;13482;48.234;13.006;2022-11-15T15:49:48;7.80;;;6.20;;
25615;SDS011;13482;48.234;13.006;2022-11-15T15:52:16;7.68;;;6.07;;
25615;SDS011;13482;48.234;13.006;2022-11-15T15:54:44;8.45;;;6.70;;
25615;SDS011;13482;48.234;13.006;2022-11-15T15:57:12;8.57;;;6.43;;
25615;SDS011;13482;48.234;13.006;2022-11-15T15:59:40;8.77;;;6.45;;
25615;SDS011;13482;48.234;13.006;2022-11-15T16:02:09;7.82;;;6.32;;
25615;SDS011;13482;48.234;13.006;2022-11-15T16:04:38;10.68;;;7.20;;
25615;SDS011;13482;48.234;13.006;2022-11-15T16:07:07;8.90;;;6.57;;
25615;SDS011;13482;48.234;13.006;2022-11-15T16:09:44;8.15;;;6.30;;
25615;SDS011;13482;48.234;13.006;2022-11-15T16:12:30;11.45;;;6.85;;
25615;SDS011;13482;48.234;13.006;2022-11-15T16:15:00;7.82;;;6.07;;
25615;SDS011;13482;48.234;13.006;2022-11-15T16:17:32;8.43;;;6.65;;
25615;SDS011;13482;48.234;13.006;2022-11-15T16:20:05;7.63;;;6.15;;
25615;SDS011;13482;48.234;13.006;2022-11-15T16:22:33;7.80;;;5.93;;
25615;SDS011;13482;48.234;13.006;2022-11-15T16:25:00;8.63;;;5.85;;
25615;SDS011;13482;48.234;13.006;2022-11-15T16:27:28;9.25;;;5.82;;
25615;SDS011;13482;48.234;13.006;2022-11-15T16:29:55;8.45;;;6.03;;
25615;SDS011;13482;48.234;13.006;2022-11-15T16:32:22;8.25;;;6.10;;
25615;SDS011;13482;48.234;13.006;2022-11-15T16:34:50;7.35;;;5.80;;
25615;SDS011;13482;48.234;13.006;2022-11-15T16:37:23;7.88;;;5.90;;
25615;SDS011;13482;48.234;13.006;2022-11-15T16:39:50;9.27;;;6.38;;
25615;SDS011;13482;48.234;13.006;2022-11-15T16:42:25;8.70;;;6.05;;
25615;SDS011;13482;48.234;13.006;2022-11-15T16:44:52;8.13;;;6.10;;
25615;SDS011;13482;48.234;13.006;2022-11-15T16:47:19;7.95;;;6.15;;
25615;SDS011;13482;48.234;13.006;2022-11-15T16:49:46;7.95;;;5.82;;
25615;SDS011;13482;48.234;13.006;2022-11-15T16:52:13;8.02;;;5.85;;
25615;SDS011;13482;48.234;13.006;2022-11-15T16:54:46;7.63;;;5.88;;
25615;SDS011;13482;48.234;13.006;2022-11-15T16:57:13;8.07;;;5.85;;
25615;SDS011;13482;48.234;13.006;2022-11-15T16:59:41;7.88;;;5.43;;
25615;SDS011;13482;48.234;13.006;2022-11-15T17:02:12;8.23;;;5.95;;
25615;SDS011;13482;48.234;13.006;2022-11-15T17:04:39;7.93;;;5.82;;
25615;SDS011;13482;48.234;13.006;2022-11-15T17:07:07;7.47;;;5.50;;
25615;SDS011;13482;48.234;13.006;2022-11-15T17:09:34;7.82;;;5.82;;
25615;SDS011;13482;48.234;13.006;2022-11-15T17:12:01;7.25;;;5.45;;
25615;SDS011;13482;48.234;13.006;2022-11-15T17:14:29;8.20;;;5.80;;
25615;SDS011;13482;48.234;13.006;2022-11-15T17:16:56;8.70;;;5.45;;
25615;SDS011;13482;48.234;13.006;2022-11-15T17:19:23;8.13;;;5.57;;
25615;SDS011;13482;48.234;13.006;2022-11-15T17:21:51;7.82;;;5.75;;
25615;SDS011;13482;48.234;13.006;2022-11-15T17:24:19;8.60;;;5.25;;
25615;SDS011;13482;48.234;13.006;2022-11-15T17:26:46;7.40;;;5.50;;
25615;SDS011;13482;48.234;13.006;2022-11-15T17:29:14;7.40;;;5.22;;
25615;SDS011;13482;48.234;13.006;2022-11-15T17:31:41;7.22;;;5.00;;
25615;SDS011;13482;48.234;13.006;2022-11-15T17:34:09;6.90;;;5.07;;
25615;SDS011;13482;48.234;13.006;2022-11-15T17:36:36;7.63;;;5.53;;
25615;SDS011;13482;48.234;13.006;2022-11-15T17:39:04;7.15;;;5.22;;
25615;SDS011;13482;48.234;13.006;2022-11-15T17:41:31;6.75;;;4.68;;
25615;SDS011;13482;48.234;13.006;2022-11-15T17:43:59;6.95;;;5.15;;
25615;SDS011;13482;48.234;13.006;2022-11-15T17:46:29;6.03;;;4.80;;
25615;SDS011;13482;48.234;13.006;2022-11-15T17:48:56;6.90;;;4.70;;
25615;SDS011;13482;48.234;13.006;2022-11-15T17:51:24;7.03;;;4.90;;